sensor_id;sensor_type;location;lat;lon;timestamp;temperature;humidity
26336;DHT22;14047;50.936;4.654;2022-12-18T00:00:43;-4.00;99.90
26336;DHT22;14047;50.936;4.654;2022-12-18T00:03:09;-3.90;99.90
26336;DHT22;14047;50.936;4.654;2022-12-18T00:05:35;-4.00;99.90
26336;DHT22;14047;50.936;4.654;2022-12-18T00:08:01;-3.90;99.90
26336;DHT22;14047;50.936;4.654;2022-12-18T00:10:27;-3.90;99.90
26336;DHT22;14047;50.936;4.654;2022-12-18T00:12:53;-4.00;99.90
26336;DHT22;14047;50.936;4.654;2022-12-18T00:15:19;-4.20;99.90
26336;DHT22;14047;50.936;4.654;2022-12-18T00:17:45;-4.30;99.90
26336;DHT22;14047;50.936;4.654;2022-12-18T00:20:10;-4.40;99.90
26336;DHT22;14047;50.936;4.654;2022-12-18T00:22:36;-4.40;99.90
26336;DHT22;14047;50.936;4.654;2022-12-18T00:25:02;-4.30;99.90
26336;DHT22;14047;50.936;4.654;2022-12-18T00:27:28;-4.30;99.90
26336;DHT22;14047;50.936;4.654;2022-12-18T00:29:53;-4.40;99.90
26336;DHT22;14047;50.936;4.654;2022-12-18T00:32:19;-4.40;99.90
26336;DHT22;14047;50.936;4.654;2022-12-18T00:34:45;-4.50;99.90
26336;DHT22;14047;50.936;4.654;2022-12-18T00:37:10;-4.40;99.90
26336;DHT22;14047;50.936;4.654;2022-12-18T00:39:36;-4.30;99.90
26336;DHT22;14047;50.936;4.654;2022-12-18T00:42:02;-4.30;99.90
26336;DHT22;14047;50.936;4.654;2022-12-18T00:44:46;-4.30;99.90
26336;DHT22;14047;50.936;4.654;2022-12-18T00:47:11;-4.30;99.90
26336;DHT22;14047;50.936;4.654;2022-12-18T00:49:37;-4.30;99.90
26336;DHT22;14047;50.936;4.654;2022-12-18T00:52:03;-4.30;99.90
26336;DHT22;14047;50.936;4.654;2022-12-18T00:54:28;-4.30;99.90
26336;DHT22;14047;50.936;4.654;2022-12-18T00:56:54;-4.40;99.90
26336;DHT22;14047;50.936;4.654;2022-12-18T00:59:20;-4.40;99.90
26336;DHT22;14047;50.936;4.654;2022-12-18T01:01:46;-4.40;99.90
26336;DHT22;14047;50.936;4.654;2022-12-18T01:04:12;-4.40;99.90
26336;DHT22;14047;50.936;4.654;2022-12-18T01:06:38;-4.50;99.90
26336;DHT22;14047;50.936;4.654;2022-12-18T01:09:03;-4.60;99.90
26336;DHT22;14047;50.936;4.654;2022-12-18T01:11:29;-4.60;99.90
26336;DHT22;14047;50.936;4.654;2022-12-18T01:13:55;-4.60;99.90
26336;DHT22;14047;50.936;4.654;2022-12-18T01:16:21;-4.60;99.90
26336;DHT22;14047;50.936;4.654;2022-12-18T01:18:50;-4.60;99.90
26336;DHT22;14047;50.936;4.654;2022-12-18T01:21:16;-4.60;99.90
26336;DHT22;14047;50.936;4.654;2022-12-18T01:23:42;-4.70;99.90
26336;DHT22;14047;50.936;4.654;2022-12-18T01:26:18;-4.80;99.90
26336;DHT22;14047;50.936;4.654;2022-12-18T01:28:43;-5.20;99.90
26336;DHT22;14047;50.936;4.654;2022-12-18T01:31:21;-5.40;99.90
26336;DHT22;14047;50.936;4.654;2022-12-18T01:33:48;-5.40;99.90
26336;DHT22;14047;50.936;4.654;2022-12-18T01:36:16;-5.20;99.90
26336;DHT22;14047;50.936;4.654;2022-12-18T01:38:42;-5.10;99.90
26336;DHT22;14047;50.936;4.654;2022-12-18T01:41:08;-5.00;99.90
26336;DHT22;14047;50.936;4.654;2022-12-18T01:43:42;-4.90;99.90
26336;DHT22;14047;50.936;4.654;2022-12-18T01:46:08;-4.80;99.90
26336;DHT22;14047;50.936;4.654;2022-12-18T01:48:34;-4.70;99.90
26336;DHT22;14047;50.936;4.654;2022-12-18T01:51:01;-4.70;99.90
26336;DHT22;14047;50.936;4.654;2022-12-18T01:53:27;-4.80;99.90
26336;DHT22;14047;50.936;4.654;2022-12-18T01:55:55;-4.80;99.90
26336;DHT22;14047;50.936;4.654;2022-12-18T01:58:27;-4.80;99.90
26336;DHT22;14047;50.936;4.654;2022-12-18T02:00:55;-4.70;99.90
26336;DHT22;14047;50.936;4.654;2022-12-18T02:03:21;-4.70;99.90
26336;DHT22;14047;50.936;4.654;2022-12-18T02:06:26;-4.70;99.90
26336;DHT22;14047;50.936;4.654;2022-12-18T02:08:55;-4.70;99.90
26336;DHT22;14047;50.936;4.654;2022-12-18T02:19:44;-4.90;99.90
26336;DHT22;14047;50.936;4.654;2022-12-18T02:25:20;-4.80;99.90
26336;DHT22;14047;50.936;4.654;2022-12-18T02:27:50;-4.80;99.90
26336;DHT22;14047;50.936;4.654;2022-12-18T02:30:17;-4.80;99.90
26336;DHT22;14047;50.936;4.654;2022-12-18T02:32:49;-4.90;99.90
26336;DHT22;14047;50.936;4.654;2022-12-18T02:35:20;-4.80;99.90
26336;DHT22;14047;50.936;4.654;2022-12-18T02:37:48;-4.80;99.90
26336;DHT22;14047;50.936;4.654;2022-12-18T02:40:15;-4.80;99.90
26336;DHT22;14047;50.936;4.654;2022-12-18T02:42:42;-4.80;99.90
26336;DHT22;14047;50.936;4.654;2022-12-18T02:45:08;-4.90;99.90
26336;DHT22;14047;50.936;4.654;2022-12-18T02:47:38;-4.90;99.90
26336;DHT22;14047;50.936;4.654;2022-12-18T02:50:36;-4.90;99.90
26336;DHT22;14047;50.936;4.654;2022-12-18T02:53:24;-4.90;99.90
26336;DHT22;14047;50.936;4.654;2022-12-18T03:01:24;-4.90;99.90
26336;DHT22;14047;50.936;4.654;2022-12-18T03:03:56;-4.90;99.90
26336;DHT22;14047;50.936;4.654;2022-12-18T03:06:32;-4.90;99.90
26336;DHT22;14047;50.936;4.654;2022-12-18T03:09:02;-4.90;99.90
26336;DHT22;14047;50.936;4.654;2022-12-18T03:11:33;-5.00;99.90
26336;DHT22;14047;50.936;4.654;2022-12-18T03:14:21;-5.00;99.90
26336;DHT22;14047;50.936;4.654;2022-12-18T03:16:54;-5.00;99.90
26336;DHT22;14047;50.936;4.654;2022-12-18T03:19:27;-5.00;99.90
26336;DHT22;14047;50.936;4.654;2022-12-18T03:21:55;-5.00;99.90
26336;DHT22;14047;50.936;4.654;2022-12-18T03:24:22;-5.00;99.90
26336;DHT22;14047;50.936;4.654;2022-12-18T03:26:52;-5.00;99.90
26336;DHT22;14047;50.936;4.654;2022-12-18T03:29:35;-5.00;99.90
26336;DHT22;14047;50.936;4.654;2022-12-18T03:32:09;-5.00;99.90
26336;DHT22;14047;50.936;4.654;2022-12-18T03:34:38;-5.00;99.90
26336;DHT22;14047;50.936;4.654;2022-12-18T03:37:05;-5.00;99.90
26336;DHT22;14047;50.936;4.654;2022-12-18T03:39:31;-5.10;99.90
26336;DHT22;14047;50.936;4.654;2022-12-18T03:42:20;-5.10;99.90
26336;DHT22;14047;50.936;4.654;2022-12-18T03:45:02;-5.20;99.90
26336;DHT22;14047;50.936;4.654;2022-12-18T03:51:02;-5.30;99.90
26336;DHT22;14047;50.936;4.654;2022-12-18T03:56:04;-5.40;99.90
26336;DHT22;14047;50.936;4.654;2022-12-18T03:58:31;-5.40;99.90
26336;DHT22;14047;50.936;4.654;2022-12-18T04:01:01;-5.40;99.90
26336;DHT22;14047;50.936;4.654;2022-12-18T04:03:28;-5.50;99.90
26336;DHT22;14047;50.936;4.654;2022-12-18T04:05:55;-5.50;99.90
26336;DHT22;14047;50.936;4.654;2022-12-18T04:08:23;-5.60;99.90
26336;DHT22;14047;50.936;4.654;2022-12-18T04:10:49;-5.60;99.90
26336;DHT22;14047;50.936;4.654;2022-12-18T04:13:22;-5.60;99.90
26336;DHT22;14047;50.936;4.654;2022-12-18T04:15:48;-5.50;99.90
26336;DHT22;14047;50.936;4.654;2022-12-18T04:18:14;-5.50;99.90
26336;DHT22;14047;50.936;4.654;2022-12-18T04:20:39;-5.50;99.90
26336;DHT22;14047;50.936;4.654;2022-12-18T04:23:05;-5.60;99.90
26336;DHT22;14047;50.936;4.654;2022-12-18T04:25:30;-5.60;99.90
26336;DHT22;14047;50.936;4.654;2022-12-18T04:27:56;-5.50;99.90
26336;DHT22;14047;50.936;4.654;2022-12-18T04:30:22;-5.50;99.90
26336;DHT22;14047;50.936;4.654;2022-12-18T04:32:47;-5.50;99.90
26336;DHT22;14047;50.936;4.654;2022-12-18T04:35:13;-5.50;99.90
26336;DHT22;14047;50.936;4.654;2022-12-18T04:37:39;-5.50;99.90
26336;DHT22;14047;50.936;4.654;2022-12-18T04:40:05;-5.50;99.90
26336;DHT22;14047;50.936;4.654;2022-12-18T04:42:31;-5.50;99.90
26336;DHT22;14047;50.936;4.654;2022-12-18T04:44:56;-5.50;99.90
26336;DHT22;14047;50.936;4.654;2022-12-18T04:47:22;-5.60;99.90
26336;DHT22;14047;50.936;4.654;2022-12-18T04:49:47;-5.80;99.90
26336;DHT22;14047;50.936;4.654;2022-12-18T04:52:13;-5.80;99.90
26336;DHT22;14047;50.936;4.654;2022-12-18T04:54:39;-5.80;99.90
26336;DHT22;14047;50.936;4.654;2022-12-18T04:57:04;-5.80;99.90
26336;DHT22;14047;50.936;4.654;2022-12-18T04:59:30;-5.80;99.90
26336;DHT22;14047;50.936;4.654;2022-12-18T05:01:55;-5.80;99.90
26336;DHT22;14047;50.936;4.654;2022-12-18T05:04:21;-5.80;99.90
26336;DHT22;14047;50.936;4.654;2022-12-18T05:06:47;-5.80;99.90
26336;DHT22;14047;50.936;4.654;2022-12-18T05:09:12;-5.90;99.90
26336;DHT22;14047;50.936;4.654;2022-12-18T05:11:38;-5.90;99.90
26336;DHT22;14047;50.936;4.654;2022-12-18T05:14:04;-5.80;99.90
26336;DHT22;14047;50.936;4.654;2022-12-18T05:16:29;-5.80;99.90
26336;DHT22;14047;50.936;4.654;2022-12-18T05:18:55;-5.80;99.90
26336;DHT22;14047;50.936;4.654;2022-12-18T05:21:21;-5.80;99.90
26336;DHT22;14047;50.936;4.654;2022-12-18T05:23:46;-5.80;99.90
26336;DHT22;14047;50.936;4.654;2022-12-18T05:26:16;-5.80;99.90
26336;DHT22;14047;50.936;4.654;2022-12-18T05:28:42;-5.80;99.90
26336;DHT22;14047;50.936;4.654;2022-12-18T05:31:09;-5.80;99.90
26336;DHT22;14047;50.936;4.654;2022-12-18T05:33:35;-5.90;99.90
26336;DHT22;14047;50.936;4.654;2022-12-18T05:36:02;-6.00;99.90
26336;DHT22;14047;50.936;4.654;2022-12-18T05:38:29;-6.00;99.90
26336;DHT22;14047;50.936;4.654;2022-12-18T05:40:55;-5.90;99.90
26336;DHT22;14047;50.936;4.654;2022-12-18T05:43:22;-6.00;99.90
26336;DHT22;14047;50.936;4.654;2022-12-18T05:45:49;-6.00;99.90
26336;DHT22;14047;50.936;4.654;2022-12-18T05:48:15;-5.90;99.90
26336;DHT22;14047;50.936;4.654;2022-12-18T05:50:43;-6.00;99.90
26336;DHT22;14047;50.936;4.654;2022-12-18T05:53:10;-6.00;99.90
26336;DHT22;14047;50.936;4.654;2022-12-18T05:55:38;-6.00;99.90
26336;DHT22;14047;50.936;4.654;2022-12-18T05:58:05;-5.90;99.90
26336;DHT22;14047;50.936;4.654;2022-12-18T06:00:33;-5.90;99.90
26336;DHT22;14047;50.936;4.654;2022-12-18T06:03:00;-5.90;99.90
26336;DHT22;14047;50.936;4.654;2022-12-18T06:05:25;-5.80;99.90
26336;DHT22;14047;50.936;4.654;2022-12-18T06:07:51;-5.90;99.90
26336;DHT22;14047;50.936;4.654;2022-12-18T06:10:17;-5.90;99.90
26336;DHT22;14047;50.936;4.654;2022-12-18T06:12:43;-5.90;99.90
26336;DHT22;14047;50.936;4.654;2022-12-18T06:15:09;-6.00;99.90
26336;DHT22;14047;50.936;4.654;2022-12-18T06:17:35;-6.00;99.90
26336;DHT22;14047;50.936;4.654;2022-12-18T06:20:00;-6.00;99.90
26336;DHT22;14047;50.936;4.654;2022-12-18T06:22:27;-6.10;99.90
26336;DHT22;14047;50.936;4.654;2022-12-18T06:24:52;-6.10;99.90
26336;DHT22;14047;50.936;4.654;2022-12-18T06:27:18;-6.10;99.90
26336;DHT22;14047;50.936;4.654;2022-12-18T06:29:44;-6.10;99.90
26336;DHT22;14047;50.936;4.654;2022-12-18T06:32:10;-6.10;99.90
26336;DHT22;14047;50.936;4.654;2022-12-18T06:34:38;-6.00;99.90
26336;DHT22;14047;50.936;4.654;2022-12-18T06:37:04;-6.00;99.90
26336;DHT22;14047;50.936;4.654;2022-12-18T06:39:30;-6.00;99.90
26336;DHT22;14047;50.936;4.654;2022-12-18T06:41:55;-5.90;99.90
26336;DHT22;14047;50.936;4.654;2022-12-18T06:44:21;-5.90;99.90
26336;DHT22;14047;50.936;4.654;2022-12-18T06:46:47;-5.90;99.90
26336;DHT22;14047;50.936;4.654;2022-12-18T06:49:13;-5.90;99.90
26336;DHT22;14047;50.936;4.654;2022-12-18T06:51:38;-5.90;99.90
26336;DHT22;14047;50.936;4.654;2022-12-18T06:54:04;-6.10;99.90
26336;DHT22;14047;50.936;4.654;2022-12-18T06:56:30;-6.20;99.90
26336;DHT22;14047;50.936;4.654;2022-12-18T06:58:56;-6.30;99.90
26336;DHT22;14047;50.936;4.654;2022-12-18T07:01:22;-6.20;99.90
26336;DHT22;14047;50.936;4.654;2022-12-18T07:03:55;-6.20;99.90
26336;DHT22;14047;50.936;4.654;2022-12-18T07:06:22;-6.20;99.90
26336;DHT22;14047;50.936;4.654;2022-12-18T07:08:49;-6.10;99.90
26336;DHT22;14047;50.936;4.654;2022-12-18T07:11:15;-6.10;99.90
26336;DHT22;14047;50.936;4.654;2022-12-18T07:13:41;-6.10;99.90
26336;DHT22;14047;50.936;4.654;2022-12-18T07:16:12;-6.00;99.90
26336;DHT22;14047;50.936;4.654;2022-12-18T07:18:38;-5.90;99.90
26336;DHT22;14047;50.936;4.654;2022-12-18T07:21:06;-5.90;99.90
26336;DHT22;14047;50.936;4.654;2022-12-18T07:23:33;-5.90;99.90
26336;DHT22;14047;50.936;4.654;2022-12-18T07:26:11;-5.80;99.90
26336;DHT22;14047;50.936;4.654;2022-12-18T07:28:38;-5.80;99.90
26336;DHT22;14047;50.936;4.654;2022-12-18T07:31:05;-5.90;99.90
26336;DHT22;14047;50.936;4.654;2022-12-18T07:33:32;-5.80;99.90
26336;DHT22;14047;50.936;4.654;2022-12-18T07:36:06;-5.70;99.90
26336;DHT22;14047;50.936;4.654;2022-12-18T07:38:32;-5.60;99.90
26336;DHT22;14047;50.936;4.654;2022-12-18T07:41:12;-5.50;99.90
26336;DHT22;14047;50.936;4.654;2022-12-18T07:43:38;-5.50;99.90
26336;DHT22;14047;50.936;4.654;2022-12-18T07:46:05;-5.50;99.90
26336;DHT22;14047;50.936;4.654;2022-12-18T07:48:30;-5.40;99.90
26336;DHT22;14047;50.936;4.654;2022-12-18T07:51:01;-5.40;99.90
26336;DHT22;14047;50.936;4.654;2022-12-18T07:53:27;-5.30;99.90
26336;DHT22;14047;50.936;4.654;2022-12-18T07:55:57;-5.30;99.90
26336;DHT22;14047;50.936;4.654;2022-12-18T07:58:23;-5.30;99.90
26336;DHT22;14047;50.936;4.654;2022-12-18T08:00:48;-5.20;99.90
26336;DHT22;14047;50.936;4.654;2022-12-18T08:03:14;-5.20;99.90
26336;DHT22;14047;50.936;4.654;2022-12-18T08:05:39;-5.10;99.90
26336;DHT22;14047;50.936;4.654;2022-12-18T08:08:05;-5.10;99.90
26336;DHT22;14047;50.936;4.654;2022-12-18T08:10:31;-5.00;99.90
26336;DHT22;14047;50.936;4.654;2022-12-18T08:12:56;-4.90;99.90
26336;DHT22;14047;50.936;4.654;2022-12-18T08:15:22;-4.90;99.90
26336;DHT22;14047;50.936;4.654;2022-12-18T08:17:48;-4.80;99.90
26336;DHT22;14047;50.936;4.654;2022-12-18T08:20:13;-4.70;99.90
26336;DHT22;14047;50.936;4.654;2022-12-18T08:22:43;-4.60;99.90
26336;DHT22;14047;50.936;4.654;2022-12-18T08:25:09;-4.50;99.90
26336;DHT22;14047;50.936;4.654;2022-12-18T08:27:36;-4.50;99.90
26336;DHT22;14047;50.936;4.654;2022-12-18T08:30:04;-4.40;99.90
26336;DHT22;14047;50.936;4.654;2022-12-18T08:32:29;-4.30;99.90
26336;DHT22;14047;50.936;4.654;2022-12-18T08:34:55;-4.10;99.90
26336;DHT22;14047;50.936;4.654;2022-12-18T08:37:21;-4.00;99.90
26336;DHT22;14047;50.936;4.654;2022-12-18T08:39:47;-3.90;99.90
26336;DHT22;14047;50.936;4.654;2022-12-18T08:42:12;-3.90;99.90
26336;DHT22;14047;50.936;4.654;2022-12-18T08:44:56;-3.70;99.90
26336;DHT22;14047;50.936;4.654;2022-12-18T08:47:22;-3.60;99.90
26336;DHT22;14047;50.936;4.654;2022-12-18T08:49:47;-3.60;99.90
26336;DHT22;14047;50.936;4.654;2022-12-18T08:52:13;-3.50;99.90
26336;DHT22;14047;50.936;4.654;2022-12-18T08:54:39;-3.40;99.90
26336;DHT22;14047;50.936;4.654;2022-12-18T08:57:04;-3.30;99.90
26336;DHT22;14047;50.936;4.654;2022-12-18T08:59:30;-3.20;99.90
26336;DHT22;14047;50.936;4.654;2022-12-18T09:01:55;-3.20;99.90
26336;DHT22;14047;50.936;4.654;2022-12-18T09:04:22;-3.20;99.90
26336;DHT22;14047;50.936;4.654;2022-12-18T09:06:47;-3.10;99.90
26336;DHT22;14047;50.936;4.654;2022-12-18T09:09:13;-2.90;99.90
26336;DHT22;14047;50.936;4.654;2022-12-18T09:11:39;-2.80;99.90
26336;DHT22;14047;50.936;4.654;2022-12-18T09:14:04;-2.80;99.90
26336;DHT22;14047;50.936;4.654;2022-12-18T09:16:31;-2.70;99.90
26336;DHT22;14047;50.936;4.654;2022-12-18T09:18:58;-2.60;99.90
26336;DHT22;14047;50.936;4.654;2022-12-18T09:21:29;-2.40;99.90
26336;DHT22;14047;50.936;4.654;2022-12-18T09:23:55;-2.30;99.90
26336;DHT22;14047;50.936;4.654;2022-12-18T09:26:22;-2.10;99.90
26336;DHT22;14047;50.936;4.654;2022-12-18T09:28:48;-2.00;99.90
26336;DHT22;14047;50.936;4.654;2022-12-18T09:31:14;-1.80;99.90
26336;DHT22;14047;50.936;4.654;2022-12-18T09:33:41;-1.80;99.90
26336;DHT22;14047;50.936;4.654;2022-12-18T09:36:09;-2.00;99.90
26336;DHT22;14047;50.936;4.654;2022-12-18T09:38:35;-2.40;99.90
26336;DHT22;14047;50.936;4.654;2022-12-18T09:41:36;-2.30;99.90
26336;DHT22;14047;50.936;4.654;2022-12-18T09:44:31;-2.20;99.90
26336;DHT22;14047;50.936;4.654;2022-12-18T09:47:46;-2.10;99.90
26336;DHT22;14047;50.936;4.654;2022-12-18T09:50:35;-1.80;99.90
26336;DHT22;14047;50.936;4.654;2022-12-18T09:53:06;-1.40;99.90
26336;DHT22;14047;50.936;4.654;2022-12-18T09:55:38;-1.40;99.90
26336;DHT22;14047;50.936;4.654;2022-12-18T09:58:39;-1.60;99.90
26336;DHT22;14047;50.936;4.654;2022-12-18T10:01:20;-1.80;99.90
26336;DHT22;14047;50.936;4.654;2022-12-18T10:03:47;-1.90;99.90
26336;DHT22;14047;50.936;4.654;2022-12-18T10:06:14;-1.90;99.90
26336;DHT22;14047;50.936;4.654;2022-12-18T10:09:00;-2.00;99.90
26336;DHT22;14047;50.936;4.654;2022-12-18T10:11:53;-2.00;99.90
26336;DHT22;14047;50.936;4.654;2022-12-18T10:14:54;-2.20;99.90
26336;DHT22;14047;50.936;4.654;2022-12-18T10:20:38;-1.50;99.90
26336;DHT22;14047;50.936;4.654;2022-12-18T10:23:33;-1.10;99.90
26336;DHT22;14047;50.936;4.654;2022-12-18T10:26:05;-0.80;99.90
26336;DHT22;14047;50.936;4.654;2022-12-18T10:28:33;-0.50;99.90
26336;DHT22;14047;50.936;4.654;2022-12-18T10:31:00;-0.50;99.90
26336;DHT22;14047;50.936;4.654;2022-12-18T10:33:29;-0.30;99.90
26336;DHT22;14047;50.936;4.654;2022-12-18T10:35:56;-0.10;99.90
26336;DHT22;14047;50.936;4.654;2022-12-18T10:38:24;0.00;99.90
26336;DHT22;14047;50.936;4.654;2022-12-18T10:41:00;0.20;99.90
26336;DHT22;14047;50.936;4.654;2022-12-18T10:43:29;0.40;99.90
26336;DHT22;14047;50.936;4.654;2022-12-18T10:48:51;0.40;99.90
26336;DHT22;14047;50.936;4.654;2022-12-18T10:51:25;0.60;99.90
26336;DHT22;14047;50.936;4.654;2022-12-18T10:53:55;0.70;99.90
26336;DHT22;14047;50.936;4.654;2022-12-18T10:56:22;0.80;99.90
26336;DHT22;14047;50.936;4.654;2022-12-18T10:59:09;0.90;99.90
26336;DHT22;14047;50.936;4.654;2022-12-18T11:01:57;1.00;99.90
26336;DHT22;14047;50.936;4.654;2022-12-18T11:04:26;1.00;99.90
26336;DHT22;14047;50.936;4.654;2022-12-18T11:06:58;1.20;99.90
26336;DHT22;14047;50.936;4.654;2022-12-18T11:09:29;1.30;99.90
26336;DHT22;14047;50.936;4.654;2022-12-18T11:11:57;1.40;99.90
26336;DHT22;14047;50.936;4.654;2022-12-18T11:14:25;1.50;99.90
26336;DHT22;14047;50.936;4.654;2022-12-18T11:16:53;1.50;99.90
26336;DHT22;14047;50.936;4.654;2022-12-18T11:19:35;1.60;99.90
26336;DHT22;14047;50.936;4.654;2022-12-18T11:22:16;1.80;99.90
26336;DHT22;14047;50.936;4.654;2022-12-18T11:24:53;1.90;99.90
26336;DHT22;14047;50.936;4.654;2022-12-18T11:27:20;2.00;99.90
26336;DHT22;14047;50.936;4.654;2022-12-18T11:29:46;2.00;99.90
26336;DHT22;14047;50.936;4.654;2022-12-18T11:34:44;2.10;99.90
26336;DHT22;14047;50.936;4.654;2022-12-18T11:37:11;2.20;99.90
26336;DHT22;14047;50.936;4.654;2022-12-18T11:39:46;2.30;99.90
26336;DHT22;14047;50.936;4.654;2022-12-18T11:42:22;2.40;99.90
26336;DHT22;14047;50.936;4.654;2022-12-18T11:45:02;2.50;99.90
26336;DHT22;14047;50.936;4.654;2022-12-18T11:47:38;2.60;99.90
26336;DHT22;14047;50.936;4.654;2022-12-18T11:50:56;2.60;99.90
26336;DHT22;14047;50.936;4.654;2022-12-18T11:53:02;2.70;99.90
26336;DHT22;14047;50.936;4.654;2022-12-18T11:58:44;2.70;99.90
26336;DHT22;14047;50.936;4.654;2022-12-18T12:01:27;2.70;99.90
26336;DHT22;14047;50.936;4.654;2022-12-18T12:21:42;3.40;99.90
26336;DHT22;14047;50.936;4.654;2022-12-18T12:27:22;3.40;99.90
26336;DHT22;14047;50.936;4.654;2022-12-18T12:32:59;3.40;99.90
26336;DHT22;14047;50.936;4.654;2022-12-18T12:36:03;3.40;99.90
26336;DHT22;14047;50.936;4.654;2022-12-18T12:38:40;3.40;99.90
26336;DHT22;14047;50.936;4.654;2022-12-18T12:41:11;3.40;99.90
26336;DHT22;14047;50.936;4.654;2022-12-18T12:43:58;3.50;99.90
26336;DHT22;14047;50.936;4.654;2022-12-18T12:46:26;3.60;99.90
26336;DHT22;14047;50.936;4.654;2022-12-18T12:48:58;3.60;99.90
26336;DHT22;14047;50.936;4.654;2022-12-18T12:51:34;3.60;99.90
26336;DHT22;14047;50.936;4.654;2022-12-18T12:54:04;3.60;99.90
26336;DHT22;14047;50.936;4.654;2022-12-18T12:56:44;3.70;99.90
26336;DHT22;14047;50.936;4.654;2022-12-18T12:59:22;3.70;99.90
26336;DHT22;14047;50.936;4.654;2022-12-18T13:07:36;3.80;99.90
26336;DHT22;14047;50.936;4.654;2022-12-18T13:13:12;3.90;99.90
26336;DHT22;14047;50.936;4.654;2022-12-18T13:18:25;3.90;99.90
26336;DHT22;14047;50.936;4.654;2022-12-18T13:23:26;3.90;99.90
26336;DHT22;14047;50.936;4.654;2022-12-18T13:34:23;3.90;99.90
26336;DHT22;14047;50.936;4.654;2022-12-18T13:36:50;3.90;99.90
26336;DHT22;14047;50.936;4.654;2022-12-18T13:41:50;3.90;99.90
26336;DHT22;14047;50.936;4.654;2022-12-18T13:44:29;3.90;99.90
26336;DHT22;14047;50.936;4.654;2022-12-18T13:46:57;3.90;99.90
26336;DHT22;14047;50.936;4.654;2022-12-18T13:49:57;4.00;99.90
26336;DHT22;14047;50.936;4.654;2022-12-18T13:52:21;3.80;99.90
26336;DHT22;14047;50.936;4.654;2022-12-18T13:54:53;3.70;99.90
26336;DHT22;14047;50.936;4.654;2022-12-18T13:57:28;3.80;99.90
26336;DHT22;14047;50.936;4.654;2022-12-18T13:59:55;3.80;99.90
26336;DHT22;14047;50.936;4.654;2022-12-18T14:02:26;3.90;99.90
26336;DHT22;14047;50.936;4.654;2022-12-18T14:04:53;3.90;99.90
26336;DHT22;14047;50.936;4.654;2022-12-18T14:07:24;3.80;99.90
26336;DHT22;14047;50.936;4.654;2022-12-18T14:09:55;3.70;99.90
26336;DHT22;14047;50.936;4.654;2022-12-18T14:12:30;3.50;99.90
26336;DHT22;14047;50.936;4.654;2022-12-18T14:15:34;3.50;99.90
26336;DHT22;14047;50.936;4.654;2022-12-18T14:18:18;3.60;99.90
26336;DHT22;14047;50.936;4.654;2022-12-18T14:20:44;3.70;99.90
26336;DHT22;14047;50.936;4.654;2022-12-18T14:23:31;3.70;99.90
26336;DHT22;14047;50.936;4.654;2022-12-18T14:25:57;3.70;99.90
26336;DHT22;14047;50.936;4.654;2022-12-18T14:28:23;3.70;99.90
26336;DHT22;14047;50.936;4.654;2022-12-18T14:30:49;3.70;99.90
26336;DHT22;14047;50.936;4.654;2022-12-18T14:33:17;3.70;99.90
26336;DHT22;14047;50.936;4.654;2022-12-18T14:36:01;3.50;99.90
26336;DHT22;14047;50.936;4.654;2022-12-18T14:38:36;3.30;99.90
26336;DHT22;14047;50.936;4.654;2022-12-18T14:41:13;3.30;99.90
26336;DHT22;14047;50.936;4.654;2022-12-18T14:43:41;3.20;99.90
26336;DHT22;14047;50.936;4.654;2022-12-18T14:49:00;3.50;99.90
26336;DHT22;14047;50.936;4.654;2022-12-18T14:51:28;3.40;99.90
26336;DHT22;14047;50.936;4.654;2022-12-18T14:54:00;3.40;99.90
26336;DHT22;14047;50.936;4.654;2022-12-18T14:56:37;3.50;99.90
26336;DHT22;14047;50.936;4.654;2022-12-18T14:59:24;3.60;99.90
26336;DHT22;14047;50.936;4.654;2022-12-18T15:02:10;3.60;99.90
26336;DHT22;14047;50.936;4.654;2022-12-18T15:04:41;3.70;99.90
26336;DHT22;14047;50.936;4.654;2022-12-18T15:07:20;3.60;99.90
26336;DHT22;14047;50.936;4.654;2022-12-18T15:23:36;2.60;99.90
26336;DHT22;14047;50.936;4.654;2022-12-18T15:26:04;2.70;99.90
26336;DHT22;14047;50.936;4.654;2022-12-18T15:28:45;2.70;99.90
26336;DHT22;14047;50.936;4.654;2022-12-18T15:33:45;2.80;99.90
26336;DHT22;14047;50.936;4.654;2022-12-18T15:36:17;2.80;99.90
26336;DHT22;14047;50.936;4.654;2022-12-18T15:38:50;2.70;99.90
26336;DHT22;14047;50.936;4.654;2022-12-18T15:41:18;2.60;99.90
26336;DHT22;14047;50.936;4.654;2022-12-18T15:43:45;2.50;99.90
26336;DHT22;14047;50.936;4.654;2022-12-18T15:46:20;2.40;99.90
26336;DHT22;14047;50.936;4.654;2022-12-18T15:51:14;2.50;99.90
26336;DHT22;14047;50.936;4.654;2022-12-18T15:53:41;2.60;99.90
26336;DHT22;14047;50.936;4.654;2022-12-18T15:56:14;2.60;99.90
26336;DHT22;14047;50.936;4.654;2022-12-18T15:58:59;2.60;99.90
26336;DHT22;14047;50.936;4.654;2022-12-18T16:01:30;2.70;99.90
26336;DHT22;14047;50.936;4.654;2022-12-18T16:03:57;2.70;99.90
26336;DHT22;14047;50.936;4.654;2022-12-18T16:06:23;2.70;99.90
26336;DHT22;14047;50.936;4.654;2022-12-18T16:08:48;2.80;99.90
26336;DHT22;14047;50.936;4.654;2022-12-18T16:11:21;2.80;99.90
26336;DHT22;14047;50.936;4.654;2022-12-18T16:14:12;2.90;99.90
26336;DHT22;14047;50.936;4.654;2022-12-18T16:16:38;3.00;99.90
26336;DHT22;14047;50.936;4.654;2022-12-18T16:19:03;3.00;99.90
26336;DHT22;14047;50.936;4.654;2022-12-18T16:21:29;3.00;99.90
26336;DHT22;14047;50.936;4.654;2022-12-18T16:23:54;3.00;99.90
26336;DHT22;14047;50.936;4.654;2022-12-18T16:26:20;2.80;99.90
26336;DHT22;14047;50.936;4.654;2022-12-18T16:28:46;2.70;99.90
26336;DHT22;14047;50.936;4.654;2022-12-18T16:31:11;2.50;99.90
26336;DHT22;14047;50.936;4.654;2022-12-18T16:33:37;2.60;99.90
26336;DHT22;14047;50.936;4.654;2022-12-18T16:36:03;2.70;99.90
26336;DHT22;14047;50.936;4.654;2022-12-18T16:38:28;2.60;99.90
26336;DHT22;14047;50.936;4.654;2022-12-18T16:40:54;2.60;99.90
26336;DHT22;14047;50.936;4.654;2022-12-18T16:43:38;2.70;99.90
26336;DHT22;14047;50.936;4.654;2022-12-18T16:46:04;2.80;99.90
26336;DHT22;14047;50.936;4.654;2022-12-18T16:48:29;2.60;99.90
26336;DHT22;14047;50.936;4.654;2022-12-18T16:51:02;2.60;99.90
26336;DHT22;14047;50.936;4.654;2022-12-18T16:53:30;2.50;99.90
26336;DHT22;14047;50.936;4.654;2022-12-18T16:55:56;2.50;99.90
26336;DHT22;14047;50.936;4.654;2022-12-18T16:58:21;2.70;99.90
26336;DHT22;14047;50.936;4.654;2022-12-18T17:00:47;2.70;99.90
26336;DHT22;14047;50.936;4.654;2022-12-18T17:03:13;2.70;99.90
26336;DHT22;14047;50.936;4.654;2022-12-18T17:05:39;2.60;99.90
26336;DHT22;14047;50.936;4.654;2022-12-18T17:08:05;2.60;99.90
26336;DHT22;14047;50.936;4.654;2022-12-18T17:10:30;2.70;99.90
26336;DHT22;14047;50.936;4.654;2022-12-18T17:12:56;2.80;99.90
26336;DHT22;14047;50.936;4.654;2022-12-18T17:15:22;3.00;99.90
26336;DHT22;14047;50.936;4.654;2022-12-18T17:17:47;3.00;99.90
26336;DHT22;14047;50.936;4.654;2022-12-18T17:20:13;3.00;99.90
26336;DHT22;14047;50.936;4.654;2022-12-18T17:22:39;2.90;99.90
26336;DHT22;14047;50.936;4.654;2022-12-18T17:25:04;2.90;99.90
26336;DHT22;14047;50.936;4.654;2022-12-18T17:27:30;2.90;99.90
26336;DHT22;14047;50.936;4.654;2022-12-18T17:29:56;2.70;99.90
26336;DHT22;14047;50.936;4.654;2022-12-18T17:32:21;2.80;99.90
26336;DHT22;14047;50.936;4.654;2022-12-18T17:34:47;2.70;99.90
26336;DHT22;14047;50.936;4.654;2022-12-18T17:37:13;2.90;99.90
26336;DHT22;14047;50.936;4.654;2022-12-18T17:39:39;2.90;99.90